createdAt,value
2023-07-06T00:02:54.469Z,4.57
2023-07-06T00:07:57.533Z,4.90
2023-07-06T00:13:02.194Z,4.57
2023-07-06T00:18:05.164Z,3.80
2023-07-06T00:23:09.052Z,3.90
2023-07-06T00:28:12.430Z,3.70
2023-07-06T00:33:16.515Z,3.42
2023-07-06T00:38:22.752Z,3.15
2023-07-06T00:43:29.853Z,3.58
2023-07-06T00:48:36.753Z,3.30
2023-07-06T00:53:42.995Z,3.65
2023-07-06T00:58:47.738Z,3.58
2023-07-06T01:03:55.054Z,3.63
2023-07-06T01:08:58.790Z,4.13
2023-07-06T01:14:01.854Z,3.50
2023-07-06T01:19:41.199Z,4.60
2023-07-06T01:25:08.802Z,3.88
2023-07-06T01:30:31.936Z,4.00
2023-07-06T01:35:43.572Z,3.92
2023-07-06T01:40:45.070Z,3.60
2023-07-06T01:45:47.427Z,3.70
2023-07-06T01:51:21.244Z,4.22
2023-07-06T01:56:32.364Z,3.88
2023-07-06T02:01:43.738Z,3.80
2023-07-06T02:06:45.684Z,3.70
2023-07-06T02:11:47.119Z,3.65
2023-07-06T02:16:55.456Z,3.75
2023-07-06T02:21:56.963Z,3.40
2023-07-06T02:26:58.611Z,3.75
2023-07-06T02:32:00.353Z,3.55
2023-07-06T02:37:01.860Z,3.60
2023-07-06T02:42:04.183Z,4.13
2023-07-06T02:47:05.984Z,4.18
2023-07-06T02:52:07.828Z,3.63
2023-07-06T02:57:09.320Z,3.25
2023-07-06T03:02:10.805Z,3.95
2023-07-06T03:07:12.289Z,3.55
2023-07-06T03:12:15.665Z,3.75
2023-07-06T03:17:17.163Z,3.00
2023-07-06T03:22:19.270Z,3.60
2023-07-06T03:27:20.784Z,3.63
2023-07-06T03:32:22.940Z,3.63
2023-07-06T03:37:24.620Z,4.25
2023-07-06T03:42:26.119Z,3.90
2023-07-06T03:47:28.285Z,4.00
2023-07-06T03:52:29.805Z,4.72
2023-07-06T03:57:31.562Z,3.63
2023-07-06T04:02:33.082Z,4.53
2023-07-06T04:07:34.554Z,4.57
2023-07-06T04:12:38.478Z,3.63
2023-07-06T04:17:40.602Z,3.63
2023-07-06T04:22:42.117Z,4.47
2023-07-06T04:27:46.471Z,3.80
2023-07-06T04:32:52.604Z,3.92
2023-07-06T04:37:54.859Z,3.90
2023-07-06T04:42:57.062Z,3.97
2023-07-06T04:47:59.150Z,3.65
2023-07-06T04:53:03.018Z,3.70
2023-07-06T04:58:06.898Z,3.83
2023-07-06T05:03:09.581Z,4.13
2023-07-06T05:08:17.331Z,3.70
2023-07-06T05:13:20.372Z,3.70
2023-07-06T05:18:23.139Z,3.65
2023-07-06T05:23:29.725Z,4.13
2023-07-06T05:28:32.831Z,4.20
2023-07-06T05:33:34.494Z,3.88
2023-07-06T05:38:36.089Z,4.03
2023-07-06T05:43:37.532Z,4.07
2023-07-06T05:48:39.005Z,4.00
2023-07-06T05:53:40.507Z,3.83
2023-07-06T05:58:42.706Z,4.07
2023-07-06T06:03:44.238Z,3.28
2023-07-06T06:08:45.691Z,3.67
2023-07-06T06:13:48.966Z,4.65
2023-07-06T06:18:50.440Z,4.15
2023-07-06T06:23:51.982Z,3.83
2023-07-06T06:28:53.465Z,4.63
2023-07-06T06:33:55.256Z,3.80
2023-07-06T06:38:56.818Z,3.90
2023-07-06T06:43:58.298Z,4.22
2023-07-06T06:49:01.357Z,4.03
2023-07-06T06:54:02.869Z,4.00
2023-07-06T06:59:04.334Z,3.70
2023-07-06T07:04:06.178Z,3.30
2023-07-06T07:09:11.743Z,3.20
2023-07-06T07:14:16.720Z,3.22
2023-07-06T07:19:20.412Z,3.17
2023-07-06T07:24:22.114Z,2.90
2023-07-06T07:29:24.499Z,2.58
2023-07-06T07:34:28.623Z,2.90
2023-07-06T07:39:30.164Z,3.13
2023-07-06T07:44:31.651Z,2.30
2023-07-06T07:49:33.171Z,2.60
2023-07-06T07:54:34.651Z,2.55
2023-07-06T07:59:37.085Z,2.50
2023-07-06T08:04:40.285Z,2.42
2023-07-06T08:09:42.412Z,2.60
2023-07-06T08:14:43.857Z,2.65
2023-07-06T08:19:58.281Z,2.60
2023-07-06T08:25:16.000Z,2.40
2023-07-06T08:30:17.530Z,2.40
2023-07-06T08:35:19.550Z,2.58
2023-07-06T08:40:24.982Z,2.80
2023-07-06T08:45:38.389Z,2.42
2023-07-06T08:50:44.017Z,1.95
2023-07-06T08:55:45.996Z,2.15
2023-07-06T09:00:47.653Z,2.45
2023-07-06T09:05:50.017Z,2.50
2023-07-06T09:10:51.511Z,2.38
2023-07-06T09:16:01.733Z,2.20
2023-07-06T09:21:04.074Z,2.60
2023-07-06T09:26:14.213Z,2.10
2023-07-06T09:31:22.483Z,2.10
2023-07-06T09:36:27.152Z,2.70
2023-07-06T09:41:29.688Z,2.42
2023-07-06T09:46:37.034Z,2.72
2023-07-06T09:51:51.910Z,2.47
2023-07-06T09:56:53.525Z,2.22
2023-07-06T10:02:42.915Z,2.65
2023-07-06T10:07:59.367Z,2.38
2023-07-06T10:13:28.974Z,2.10
2023-07-06T10:18:40.525Z,2.30
2023-07-06T10:24:14.007Z,2.13
2023-07-06T10:29:23.497Z,1.88
2023-07-06T10:34:40.617Z,2.22
2023-07-06T10:39:45.250Z,2.53
2023-07-06T10:44:52.132Z,2.10
2023-07-06T10:50:08.655Z,2.60
2023-07-06T10:55:23.665Z,2.50
2023-07-06T11:00:38.790Z,2.45
2023-07-06T11:05:57.320Z,2.20
2023-07-06T11:11:03.533Z,1.90
2023-07-06T11:16:07.830Z,2.33
2023-07-06T11:21:12.091Z,2.40
2023-07-06T11:26:40.090Z,2.00
2023-07-06T11:32:15.684Z,2.30
2023-07-06T11:37:57.295Z,2.45
2023-07-06T11:43:23.407Z,2.45
2023-07-06T11:48:40.164Z,2.20
2023-07-06T11:53:48.649Z,1.92
2023-07-06T11:59:02.251Z,2.08
2023-07-06T12:04:05.529Z,2.30
2023-07-06T12:09:10.064Z,2.20
2023-07-06T12:14:21.482Z,1.70
2023-07-06T12:19:23.950Z,2.10
2023-07-06T12:24:27.646Z,1.90
2023-07-06T12:29:32.778Z,1.30
2023-07-06T12:34:36.007Z,2.13
2023-07-06T12:39:41.728Z,1.50
2023-07-06T12:44:45.083Z,1.70
2023-07-06T12:49:47.704Z,1.75
2023-07-06T12:54:53.805Z,1.55
2023-07-06T13:00:14.652Z,1.65
2023-07-06T13:05:23.755Z,1.70
2023-07-06T13:10:28.114Z,1.80
2023-07-06T13:15:40.270Z,1.92
2023-07-06T13:20:42.520Z,1.75
2023-07-06T13:25:50.267Z,1.63
2023-07-06T13:30:53.658Z,2.05
2023-07-06T13:35:56.754Z,2.03
2023-07-06T13:41:00.372Z,1.90
2023-07-06T13:46:01.891Z,2.20
2023-07-06T13:51:04.650Z,1.88
2023-07-06T13:56:06.867Z,2.08
2023-07-06T14:01:10.137Z,1.90
2023-07-06T14:06:12.553Z,1.40
2023-07-06T14:11:14.846Z,1.77
2023-07-06T14:16:16.332Z,2.22
2023-07-06T14:21:23.801Z,2.03
2023-07-06T14:26:26.612Z,2.03
2023-07-06T14:31:29.379Z,1.80
2023-07-06T14:36:30.958Z,1.80
2023-07-06T14:41:32.458Z,1.90
2023-07-06T14:46:34.330Z,1.60
2023-07-06T14:51:35.944Z,2.13
2023-07-06T14:56:37.450Z,1.92
2023-07-06T15:01:40.880Z,1.98
2023-07-06T15:06:42.442Z,1.88
2023-07-06T15:11:43.900Z,2.53
2023-07-06T15:16:46.072Z,1.83
2023-07-06T15:21:47.649Z,2.05
2023-07-06T15:26:49.784Z,2.33
2023-07-06T15:31:51.340Z,1.50
2023-07-06T15:36:52.930Z,2.30
2023-07-06T15:41:56.043Z,1.98
2023-07-06T15:46:57.590Z,1.98
2023-07-06T15:52:00.543Z,1.90
2023-07-06T15:57:02.321Z,1.77
2023-07-06T16:02:04.226Z,2.00
2023-07-06T16:07:06.322Z,1.77
2023-07-06T16:12:09.165Z,1.52
2023-07-06T16:17:10.687Z,1.60
2023-07-06T16:22:12.150Z,1.90
2023-07-06T16:27:13.661Z,1.60
2023-07-06T16:32:15.983Z,1.58
2023-07-06T16:37:17.475Z,1.77
2023-07-06T16:42:18.939Z,1.70
2023-07-06T16:47:20.388Z,1.92
2023-07-06T16:52:22.627Z,1.75
2023-07-06T16:57:24.091Z,1.63
2023-07-06T17:02:25.577Z,2.42
2023-07-06T17:07:27.094Z,1.80
2023-07-06T17:12:28.602Z,1.60
2023-07-06T17:17:31.053Z,1.80
2023-07-06T17:22:32.525Z,1.77
2023-07-06T17:27:34.049Z,1.70
2023-07-06T17:32:35.531Z,1.83
2023-07-06T17:37:37.053Z,2.20
2023-07-06T17:42:38.582Z,2.00
2023-07-06T17:47:40.297Z,2.03
2023-07-06T17:52:41.773Z,2.05
2023-07-06T17:57:43.225Z,2.13
2023-07-06T18:02:44.788Z,2.38
2023-07-06T18:07:46.459Z,1.70
2023-07-06T18:12:47.909Z,1.80
2023-07-06T18:17:49.438Z,2.20
2023-07-06T18:22:50.988Z,2.00
2023-07-06T18:27:53.047Z,2.22
2023-07-06T18:32:54.616Z,2.55
2023-07-06T18:37:56.195Z,2.30
2023-07-06T18:42:57.685Z,2.55
2023-07-06T18:48:00.279Z,2.80
2023-07-06T18:53:01.806Z,2.60
2023-07-06T18:58:03.394Z,2.58
2023-07-06T19:03:05.098Z,3.13
2023-07-06T19:08:06.777Z,2.95
2023-07-06T19:13:10.614Z,2.58
2023-07-06T19:18:12.120Z,2.53
2023-07-06T19:23:13.885Z,2.65
2023-07-06T19:28:15.736Z,2.70
2023-07-06T19:33:17.257Z,2.80
2023-07-06T19:38:18.898Z,3.60
2023-07-06T19:43:21.337Z,3.10
2023-07-06T19:48:22.861Z,3.17
2023-07-06T19:53:26.621Z,3.35
2023-07-06T19:58:28.139Z,3.42
2023-07-06T20:03:29.643Z,3.20
2023-07-06T20:08:31.286Z,3.40
2023-07-06T20:13:35.101Z,3.53
2023-07-06T20:18:36.697Z,3.40
2023-07-06T20:23:38.228Z,3.30
2023-07-06T20:28:39.863Z,3.38
2023-07-06T20:33:41.391Z,3.78
2023-07-06T20:38:42.864Z,3.80
2023-07-06T20:43:44.403Z,4.03
2023-07-06T20:48:45.873Z,3.70
2023-07-06T20:53:47.368Z,4.00
2023-07-06T20:58:48.827Z,3.80
2023-07-06T21:03:51.768Z,4.22
2023-07-06T21:08:53.367Z,3.95
2023-07-06T21:13:54.985Z,4.30
2023-07-06T21:18:56.486Z,4.07
2023-07-06T21:23:58.030Z,4.68
2023-07-06T21:28:59.736Z,4.50
2023-07-06T21:34:01.223Z,4.78
2023-07-06T21:39:02.965Z,4.35
2023-07-06T21:44:05.026Z,4.25
2023-07-06T21:49:07.120Z,4.60
2023-07-06T21:54:08.732Z,4.18
2023-07-06T21:59:10.209Z,4.68
2023-07-06T22:04:11.755Z,4.70
2023-07-06T22:09:14.380Z,4.40
2023-07-06T22:14:15.866Z,4.32
2023-07-06T22:19:17.343Z,4.03
2023-07-06T22:24:19.166Z,5.10
2023-07-06T22:29:20.617Z,4.55
2023-07-06T22:34:22.093Z,4.85
2023-07-06T22:39:23.797Z,4.82
2023-07-06T22:44:25.347Z,4.40
2023-07-06T22:49:26.886Z,5.70
2023-07-06T22:54:28.919Z,6.28
2023-07-06T22:59:30.774Z,6.20
2023-07-06T23:04:32.220Z,6.20
2023-07-06T23:09:34.119Z,6.13
2023-07-06T23:14:35.611Z,6.32
2023-07-06T23:19:38.491Z,6.00
2023-07-06T23:24:40.500Z,6.07
2023-07-06T23:29:42.643Z,5.93
2023-07-06T23:34:44.091Z,6.25
2023-07-06T23:39:48.844Z,6.53
2023-07-06T23:44:51.156Z,5.85
2023-07-06T23:49:52.661Z,5.75
2023-07-06T23:54:54.134Z,5.93
2023-07-06T23:59:56.134Z,5.93
